Time;durP1;ratioP1;P1;durP2;ratioP2;P2;SDS_P1;SDS_P2;PMS_P1;PMS_P2;Temp;Humidity;BMP_temperature;BMP_pressure;BME280_temperature;BME280_humidity;BME280_pressure;Samples;Min_cycle;Max_cycle;Signal;HPM_P1;HPM_P2
2023/09/13 04:01:28;;;;;;;0.10;0.10;;;17.90;99.90;;;;;;5437392;23;20526;-71
2023/09/13 04:03:55;;;;;;;0.10;0.10;;;17.90;99.90;;;;;;4951203;29;20589;-69
2023/09/13 04:06:21;;;;;;;0.10;0.10;;;17.90;99.90;;;;;;4941836;28;20479;-69
2023/09/13 04:08:48;;;;;;;0.10;0.10;;;17.90;99.90;;;;;;4942809;28;20561;-68
2023/09/13 04:11:15;;;;;;;0.10;0.10;;;17.90;99.90;;;;;;4937437;28;20497;-69
2023/09/13 04:13:42;;;;;;;0.10;0.10;;;17.80;99.90;;;;;;4938430;29;20472;-71
2023/09/13 04:16:13;;;;;;;0.10;0.10;;;17.80;99.90;;;;;;4932545;29;20488;-71
2023/09/13 04:18:41;;;;;;;0.10;0.10;;;17.90;99.90;;;;;;4939815;29;20547;-72
2023/09/13 04:21:08;;;;;;;0.10;0.10;;;17.80;99.90;;;;;;4929985;29;20493;-71
2023/09/13 04:23:34;;;;;;;0.10;0.10;;;17.80;99.90;;;;;;4930746;29;20671;-72
2023/09/13 04:26:01;;;;;;;0.10;0.10;;;17.90;99.90;;;;;;4938645;29;20467;-72
2023/09/13 04:28:28;;;;;;;0.10;0.10;;;17.80;99.90;;;;;;4934545;29;20493;-72
2023/09/13 04:30:58;;;;;;;0.10;0.10;;;17.90;99.90;;;;;;4935473;29;20498;-72
2023/09/13 04:33:48;;;;;;;0.10;0.10;;;17.80;99.90;;;;;;4933087;29;20505;-71
2023/09/13 04:36:14;;;;;;;0.10;0.10;;;17.80;99.90;;;;;;4932997;29;20508;-71
2023/09/13 04:38:41;;;;;;;0.10;0.10;;;17.80;99.90;;;;;;4929074;29;20473;-72
2023/09/13 04:41:13;;;;;;;0.10;0.10;;;17.80;99.90;;;;;;4929132;29;20492;-71
2023/09/13 04:43:40;;;;;;;0.10;0.10;;;17.80;99.90;;;;;;4933110;29;20482;-72
2023/09/13 04:46:07;;;;;;;0.10;0.10;;;17.80;99.90;;;;;;4928806;29;20830;-69
2023/09/13 04:48:34;;;;;;;0.10;0.10;;;17.80;99.90;;;;;;4926948;29;20520;-71
2023/09/13 04:51:03;;;;;;;0.10;0.10;;;17.80;99.90;;;;;;4926617;29;20497;-73
2023/09/13 04:53:30;;;;;;;0.10;0.10;;;17.80;99.90;;;;;;4926863;29;20483;-71
2023/09/13 04:55:57;;;;;;;0.10;0.10;;;17.80;99.90;;;;;;4927553;29;20479;-68
2023/09/13 04:58:23;;;;;;;0.10;0.10;;;17.80;99.90;;;;;;4926250;29;20465;-72
2023/09/13 05:00:50;;;;;;;0.10;0.10;;;17.80;99.90;;;;;;4926017;29;20499;-72
2023/09/13 05:03:17;;;;;;;0.10;0.10;;;17.80;99.90;;;;;;4925380;29;20480;-71
2023/09/13 05:05:44;;;;;;;0.10;0.10;;;17.80;99.90;;;;;;4927399;29;20475;-71
2023/09/13 05:08:12;;;;;;;0.10;0.10;;;17.70;99.90;;;;;;4927987;29;20473;-71
2023/09/13 05:10:39;;;;;;;0.10;0.10;;;17.80;99.90;;;;;;4926972;29;20497;-71
2023/09/13 05:13:06;;;;;;;0.10;0.10;;;17.70;99.90;;;;;;4926823;29;21725;-74
2023/09/13 05:15:33;;;;;;;0.10;0.10;;;17.80;99.90;;;;;;4927220;29;20473;-70
2023/09/13 05:17:59;;;;;;;0.10;0.10;;;17.70;99.90;;;;;;4930156;29;20483;-71
2023/09/13 05:20:27;;;;;;;0.10;0.10;;;17.70;99.90;;;;;;4931287;29;20477;-70
2023/09/13 05:22:53;;;;;;;0.10;0.10;;;17.70;99.90;;;;;;4932912;29;20467;-70
2023/09/13 05:25:21;;;;;;;0.10;0.10;;;17.70;99.90;;;;;;4933518;29;20511;-70
2023/09/13 05:27:48;;;;;;;0.10;0.10;;;17.70;99.90;;;;;;4932209;29;20481;-70
2023/09/13 05:30:15;;;;;;;0.10;0.10;;;17.70;99.90;;;;;;4933165;29;20497;-70
2023/09/13 05:32:42;;;;;;;0.10;0.10;;;17.70;99.90;;;;;;4932449;29;20480;-71
2023/09/13 05:35:09;;;;;;;0.10;0.10;;;17.70;99.90;;;;;;4933263;29;20476;-71
2023/09/13 05:37:36;;;;;;;0.10;0.10;;;17.70;99.90;;;;;;4932216;29;20472;-70
2023/09/13 05:40:06;;;;;;;0.10;0.10;;;17.70;99.90;;;;;;4931569;29;20468;-70
2023/09/13 05:42:35;;;;;;;0.10;0.10;;;17.70;99.90;;;;;;4925537;29;20510;-70
2023/09/13 05:45:01;;;;;;;0.10;0.10;;;17.80;99.90;;;;;;4929448;29;20481;-70
2023/09/13 05:47:29;;;;;;;0.10;0.10;;;17.70;99.90;;;;;;4929914;29;20469;-71
2023/09/13 05:49:56;;;;;;;0.10;0.10;;;17.80;99.90;;;;;;4930648;29;20826;-70
2023/09/13 05:52:22;;;;;;;0.10;0.10;;;17.70;99.90;;;;;;4929497;29;20492;-71
2023/09/13 05:54:49;;;;;;;0.10;0.10;;;17.80;99.90;;;;;;4932521;29;20478;-71
2023/09/13 05:57:16;;;;;;;0.10;0.10;;;17.70;99.90;;;;;;4933022;29;20896;-70
2023/09/13 05:59:44;;;;;;;0.10;0.10;;;17.80;99.90;;;;;;4932988;29;20528;-72
2023/09/13 06:02:10;;;;;;;0.10;0.10;;;17.80;99.90;;;;;;4929368;29;20511;-70
2023/09/13 06:04:37;;;;;;;0.10;0.10;;;17.70;99.90;;;;;;4932964;29;20467;-70
2023/09/13 06:07:04;;;;;;;1.03;1.03;;;17.80;99.90;;;;;;4933109;29;20790;-70
2023/09/13 06:09:31;;;;;;;0.10;0.10;;;17.80;99.90;;;;;;4931956;29;20497;-70
2023/09/13 06:11:58;;;;;;;0.10;0.10;;;17.80;99.90;;;;;;4931981;29;20504;-70
2023/09/13 06:14:24;;;;;;;0.10;0.10;;;17.90;99.90;;;;;;4933010;29;20828;-71
2023/09/13 06:16:52;;;;;;;0.10;0.10;;;17.90;99.90;;;;;;4933143;29;20490;-70
2023/09/13 06:19:19;;;;;;;0.10;0.10;;;17.90;99.90;;;;;;4933189;29;20570;-70
2023/09/13 06:21:47;;;;;;;0.10;0.10;;;17.90;99.90;;;;;;4930678;29;20500;-70
2023/09/13 06:24:14;;;;;;;0.10;0.10;;;17.90;99.90;;;;;;4932781;29;20529;-69
2023/09/13 06:26:41;;;;;;;0.10;0.10;;;17.90;99.90;;;;;;4932918;29;20473;-70
2023/09/13 06:29:09;;;;;;;0.10;0.10;;;18.00;99.90;;;;;;4932388;29;20611;-70
2023/09/13 06:31:37;;;;;;;0.10;0.10;;;18.00;99.90;;;;;;4928087;29;20568;-69
2023/09/13 06:34:05;;;;;;;0.10;0.10;;;18.00;99.90;;;;;;4934350;29;20477;-72
2023/09/13 06:36:32;;;;;;;0.10;0.10;;;18.00;99.90;;;;;;4935689;29;20471;-69
2023/09/13 06:38:59;;;;;;;0.10;0.10;;;18.00;99.90;;;;;;4936344;29;20464;-69
2023/09/13 06:41:25;;;;;;;0.10;0.10;;;18.10;99.90;;;;;;4935972;29;20500;-70
2023/09/13 06:43:52;;;;;;;0.10;0.10;;;18.00;99.90;;;;;;4935394;29;20469;-69
2023/09/13 06:46:19;;;;;;;0.10;0.10;;;18.10;99.90;;;;;;4936073;29;20476;-70
2023/09/13 06:48:45;;;;;;;0.10;0.10;;;18.10;99.90;;;;;;4935171;29;20468;-72
2023/09/13 06:51:13;;;;;;;0.10;0.10;;;18.00;99.90;;;;;;4935886;29;20838;-70
2023/09/13 06:53:40;;;;;;;0.10;0.10;;;18.00;99.90;;;;;;4933096;29;20473;-69
2023/09/13 06:56:08;;;;;;;0.20;0.20;;;18.10;99.90;;;;;;4932449;29;21001;-69
2023/09/13 06:58:35;;;;;;;0.10;0.10;;;18.10;99.90;;;;;;4929311;28;20552;-70
2023/09/13 07:01:01;;;;;;;0.10;0.10;;;18.10;99.90;;;;;;4928522;29;20497;-71
2023/09/13 07:03:28;;;;;;;0.10;0.10;;;18.10;99.90;;;;;;4935493;29;20556;-71
2023/09/13 07:05:55;;;;;;;0.10;0.10;;;18.00;99.90;;;;;;4935096;29;20483;-70
2023/09/13 07:08:23;;;;;;;0.10;0.10;;;17.90;99.90;;;;;;4935914;29;20472;-71
2023/09/13 07:10:49;;;;;;;0.10;0.10;;;17.90;99.90;;;;;;4935233;29;21054;-71
2023/09/13 07:13:16;;;;;;;0.10;0.10;;;17.90;99.90;;;;;;4933710;29;20481;-70
2023/09/13 07:15:43;;;;;;;0.10;0.10;;;17.90;99.90;;;;;;4934549;29;20975;-70
2023/09/13 07:18:09;;;;;;;0.10;0.10;;;17.90;99.90;;;;;;4934794;29;20475;-69
2023/09/13 07:20:36;;;;;;;0.10;0.10;;;17.90;99.90;;;;;;4935157;29;20599;-70
2023/09/13 07:23:03;;;;;;;0.10;0.10;;;17.80;99.90;;;;;;4935365;29;21160;-70
2023/09/13 07:25:31;;;;;;;0.10;0.10;;;17.70;99.90;;;;;;4935533;29;20472;-70
2023/09/13 07:27:59;;;;;;;0.10;0.10;;;17.70;99.90;;;;;;4934058;29;20572;-71
2023/09/13 07:30:27;;;;;;;0.10;0.10;;;17.60;99.90;;;;;;4935262;29;20496;-71
2023/09/13 07:32:54;;;;;;;0.10;0.10;;;17.60;99.90;;;;;;4935774;29;20500;-70
2023/09/13 07:35:22;;;;;;;0.17;0.17;;;17.50;99.90;;;;;;4933389;29;20481;-71
2023/09/13 07:37:48;;;;;;;0.10;0.10;;;17.50;99.90;;;;;;4934054;29;20965;-71
2023/09/13 07:40:15;;;;;;;0.10;0.10;;;17.50;99.90;;;;;;4932832;29;20468;-70
2023/09/13 07:42:43;;;;;;;0.10;0.10;;;17.40;99.90;;;;;;4932094;29;20467;-70
2023/09/13 07:45:10;;;;;;;0.10;0.10;;;17.40;99.90;;;;;;4934295;29;20659;-70
2023/09/13 07:47:37;;;;;;;0.10;0.10;;;17.40;99.90;;;;;;4933833;29;20473;-70
2023/09/13 07:50:04;;;;;;;0.10;0.10;;;17.30;99.90;;;;;;4935051;29;20492;-70
2023/09/13 07:52:31;;;;;;;0.10;0.10;;;17.30;99.90;;;;;;4933195;29;20603;-70
2023/09/13 07:54:58;;;;;;;0.10;0.10;;;17.30;99.90;;;;;;4931397;29;20476;-70
2023/09/13 07:57:24;;;;;;;0.10;0.10;;;17.30;99.90;;;;;;4933977;29;20894;-70
2023/09/13 07:59:52;;;;;;;0.10;0.10;;;17.20;99.90;;;;;;4932334;29;20465;-70
2023/09/13 08:02:19;;;;;;;0.10;0.10;;;17.20;99.90;;;;;;4934752;29;20514;-71
2023/09/13 08:04:49;;;;;;;0.10;0.10;;;17.20;99.90;;;;;;4932714;29;20934;-70
2023/09/13 08:07:16;;;;;;;0.10;0.10;;;17.20;99.90;;;;;;4932054;29;20499;-70
2023/09/13 08:09:43;;;;;;;0.10;0.10;;;17.20;99.90;;;;;;4931366;29;20580;-70
2023/09/13 08:12:10;;;;;;;0.10;0.10;;;17.20;99.90;;;;;;4928220;29;20500;-70
2023/09/13 08:14:36;;;;;;;0.10;0.10;;;17.20;99.90;;;;;;4928045;29;20488;-70
2023/09/13 08:17:04;;;;;;;0.10;0.10;;;17.10;99.90;;;;;;4930470;29;20479;-70
2023/09/13 08:19:31;;;;;;;0.10;0.10;;;17.10;99.90;;;;;;4935100;29;20469;-70
2023/09/13 08:21:58;;;;;;;0.10;0.10;;;17.10;99.90;;;;;;4929875;29;20541;-70
2023/09/13 08:24:25;;;;;;;0.10;0.10;;;17.10;99.90;;;;;;4932669;29;20576;-69
2023/09/13 08:26:51;;;;;;;0.10;0.10;;;17.10;99.90;;;;;;4934923;29;20483;-70
2023/09/13 08:29:18;;;;;;;0.10;0.10;;;17.10;99.90;;;;;;4935156;29;20471;-70
2023/09/13 08:31:45;;;;;;;0.10;0.10;;;17.10;99.90;;;;;;4936483;29;20490;-70
2023/09/13 08:34:13;;;;;;;0.10;0.10;;;17.10;99.90;;;;;;4932516;29;20479;-70
2023/09/13 08:36:40;;;;;;;0.10;0.10;;;17.10;99.90;;;;;;4928180;29;20806;-70
2023/09/13 08:39:07;;;;;;;0.10;0.10;;;17.10;99.90;;;;;;4930761;29;20476;-70
2023/09/13 08:41:34;;;;;;;0.10;0.10;;;17.10;99.90;;;;;;4928668;29;20979;-70
2023/09/13 08:44:04;;;;;;;0.10;0.10;;;17.00;99.90;;;;;;4934423;29;20466;-71
2023/09/13 08:46:33;;;;;;;0.10;0.10;;;17.00;99.90;;;;;;4928588;29;20828;-73
2023/09/13 08:49:02;;;;;;;0.10;0.10;;;16.90;99.90;;;;;;4933825;29;20517;-72
2023/09/13 08:51:32;;;;;;;0.10;0.10;;;17.00;99.90;;;;;;4931919;29;20515;-72
2023/09/13 08:53:59;;;;;;;0.10;0.10;;;17.10;99.90;;;;;;4933134;29;20563;-72
2023/09/13 08:56:29;;;;;;;0.10;0.10;;;17.10;99.90;;;;;;4933633;29;20960;-73
2023/09/13 08:58:56;;;;;;;0.10;0.10;;;17.10;99.90;;;;;;4932442;29;20844;-72
2023/09/13 09:01:26;;;;;;;0.10;0.10;;;17.00;99.90;;;;;;4933153;29;20935;-72
2023/09/13 09:03:53;;;;;;;0.10;0.10;;;17.10;99.90;;;;;;4930663;29;20471;-74
2023/09/13 09:06:22;;;;;;;0.10;0.10;;;17.00;99.90;;;;;;4929132;29;20815;-72
2023/09/13 09:08:51;;;;;;;0.10;0.10;;;17.00;99.90;;;;;;4931521;29;20466;-72
2023/09/13 09:11:22;;;;;;;0.10;0.10;;;17.00;99.90;;;;;;4933219;29;20491;-72
2023/09/13 09:13:49;;;;;;;0.10;0.10;;;17.00;99.90;;;;;;4937018;29;20889;-72
2023/09/13 09:16:18;;;;;;;0.10;0.10;;;17.00;99.90;;;;;;4932742;29;20889;-72
2023/09/13 09:18:46;;;;;;;0.10;0.10;;;17.10;99.90;;;;;;4932571;29;20828;-72
2023/09/13 09:21:14;;;;;;;0.10;0.10;;;17.10;99.90;;;;;;4930554;29;20495;-72
2023/09/13 09:23:42;;;;;;;0.10;0.10;;;17.10;99.90;;;;;;4933666;29;20849;-73
2023/09/13 09:26:11;;;;;;;0.10;0.10;;;17.00;99.90;;;;;;4933136;29;20470;-74
2023/09/13 09:28:38;;;;;;;0.10;0.10;;;17.00;99.90;;;;;;4932796;29;20469;-72
2023/09/13 09:31:05;;;;;;;0.10;0.10;;;17.00;99.90;;;;;;4932582;29;20498;-72
2023/09/13 09:33:33;;;;;;;0.10;0.10;;;17.00;99.90;;;;;;4931941;29;20483;-74
2023/09/13 09:36:03;;;;;;;0.10;0.10;;;17.10;99.90;;;;;;4932956;29;20463;-72
2023/09/13 09:38:31;;;;;;;0.10;0.10;;;17.10;99.90;;;;;;4930815;29;20475;-73
2023/09/13 09:40:59;;;;;;;0.10;0.10;;;17.20;99.90;;;;;;4928082;29;20494;-73
2023/09/13 09:43:27;;;;;;;0.10;0.10;;;17.20;99.90;;;;;;4932861;29;20533;-73
2023/09/13 09:45:54;;;;;;;0.10;0.10;;;17.10;99.90;;;;;;4930915;29;20470;-73
2023/09/13 09:48:21;;;;;;;0.10;0.10;;;17.10;99.90;;;;;;4930081;28;20482;-71
2023/09/13 09:50:50;;;;;;;0.10;0.10;;;17.10;99.90;;;;;;4929775;29;20985;-73
2023/09/13 09:53:18;;;;;;;0.10;0.10;;;17.10;99.90;;;;;;4929836;29;20480;-73
2023/09/13 09:55:45;;;;;;;0.10;0.10;;;17.00;99.90;;;;;;4928986;29;20491;-73
2023/09/13 09:58:13;;;;;;;0.10;0.10;;;17.00;99.90;;;;;;4929571;29;20855;-72
2023/09/13 10:00:51;;;;;;;0.10;0.10;;;17.00;99.90;;;;;;4929253;29;20507;-73
2023/09/13 10:03:19;;;;;;;0.10;0.10;;;17.00;99.90;;;;;;4925251;29;20469;-72
2023/09/13 10:06:01;;;;;;;0.10;0.10;;;17.00;99.90;;;;;;4930637;29;20471;-70
2023/09/13 10:08:38;;;;;;;0.10;0.10;;;16.90;99.90;;;;;;4933054;29;20787;-71
2023/09/13 10:11:05;;;;;;;0.10;0.10;;;16.90;99.90;;;;;;4935822;29;20988;-72
2023/09/13 10:13:32;;;;;;;0.10;0.10;;;16.90;99.90;;;;;;4934174;29;20467;-73
2023/09/13 10:16:01;;;;;;;0.10;0.10;;;16.80;99.90;;;;;;4932719;29;20471;-72
2023/09/13 10:18:28;;;;;;;0.10;0.10;;;16.80;99.90;;;;;;4936959;29;20470;-72
2023/09/13 10:20:57;;;;;;;0.10;0.10;;;16.80;99.90;;;;;;4970435;23;20506;-71
2023/09/13 10:23:29;;;;;;;0.10;0.10;;;16.80;99.90;;;;;;4952910;28;20988;-71
2023/09/13 10:25:59;;;;;;;0.10;0.10;;;16.80;99.90;;;;;;4957298;28;20469;-71
2023/09/13 10:28:28;;;;;;;0.10;0.10;;;16.80;99.90;;;;;;4954568;28;20471;-73
2023/09/13 10:30:58;;;;;;;0.10;0.10;;;16.80;99.90;;;;;;4954166;28;20488;-71
2023/09/13 10:33:31;;;;;;;0.10;0.10;;;16.90;99.90;;;;;;4953326;29;20469;-72
2023/09/13 10:36:00;;;;;;;0.10;0.10;;;16.90;99.90;;;;;;4954611;28;20525;-72
2023/09/13 10:38:37;;;;;;;0.10;0.10;;;16.90;99.90;;;;;;4952097;29;20946;-69
2023/09/13 10:41:08;;;;;;;0.10;0.10;;;16.90;99.90;;;;;;4954659;28;21089;-70
2023/09/13 10:43:37;;;;;;;0.10;0.10;;;16.90;99.90;;;;;;4951624;29;20477;-70
2023/09/13 10:46:04;;;;;;;0.10;0.10;;;16.90;99.90;;;;;;4952585;28;20482;-70
2023/09/13 10:48:35;;;;;;;0.10;0.10;;;16.90;99.90;;;;;;4953287;28;20473;-70
2023/09/13 10:51:03;;;;;;;0.10;0.10;;;17.00;99.90;;;;;;4952511;28;20484;-72
2023/09/13 10:53:30;;;;;;;0.10;0.10;;;16.90;99.90;;;;;;4954073;29;20977;-71
2023/09/13 10:55:57;;;;;;;0.10;0.10;;;16.90;99.90;;;;;;4954324;28;20967;-70
2023/09/13 10:58:26;;;;;;;0.10;0.10;;;16.90;99.90;;;;;;4948929;28;20469;-71
2023/09/13 11:00:54;;;;;;;0.10;0.10;;;17.00;99.90;;;;;;4955736;28;20504;-70
2023/09/13 11:03:22;;;;;;;0.10;0.10;;;17.00;99.90;;;;;;4952826;28;20493;-71
2023/09/13 11:05:53;;;;;;;0.10;0.10;;;17.10;99.90;;;;;;4947414;29;20561;-71
2023/09/13 11:08:29;;;;;;;0.10;0.10;;;17.10;99.90;;;;;;4951803;29;20840;-71
2023/09/13 11:10:56;;;;;;;0.10;0.10;;;17.20;99.90;;;;;;4953675;29;20547;-72
2023/09/13 11:13:30;;;;;;;0.10;0.10;;;17.20;99.90;;;;;;4951984;28;20962;-71
2023/09/13 11:16:01;;;;;;;0.10;0.10;;;17.20;99.90;;;;;;4953336;28;20509;-72
2023/09/13 11:18:28;;;;;;;0.10;0.10;;;17.20;99.90;;;;;;4952248;28;20980;-71
2023/09/13 11:20:57;;;;;;;0.10;0.10;;;17.20;99.90;;;;;;4951552;28;20505;-71
2023/09/13 11:23:24;;;;;;;0.10;0.10;;;17.30;99.90;;;;;;4953964;28;20529;-71
2023/09/13 11:25:53;;;;;;;0.10;0.10;;;17.30;99.90;;;;;;4949015;28;20477;-71
2023/09/13 11:28:44;;;;;;;0.10;0.10;;;17.30;99.90;;;;;;4954970;28;20507;-72
2023/09/13 11:31:13;;;;;;;0.10;0.10;;;17.30;99.90;;;;;;4952770;28;20812;-66
2023/09/13 11:33:46;;;;;;;0.10;0.10;;;17.30;99.90;;;;;;4948574;29;20474;-66
2023/09/13 11:36:17;;;;;;;0.10;0.10;;;17.30;99.90;;;;;;4952980;28;20478;-70
2023/09/13 11:38:44;;;;;;;0.10;0.10;;;17.40;99.90;;;;;;4955649;28;20467;-69
2023/09/13 11:41:17;;;;;;;0.10;0.10;;;17.40;99.90;;;;;;4955371;28;21056;-69
2023/09/13 11:43:43;;;;;;;0.10;0.10;;;17.40;99.90;;;;;;4955569;28;20519;-68
2023/09/13 11:46:11;;;;;;;0.10;0.10;;;17.40;99.90;;;;;;4955467;28;20474;-70
2023/09/13 11:48:40;;;;;;;0.10;0.10;;;17.30;99.90;;;;;;4954545;28;21045;-70
2023/09/13 11:51:11;;;;;;;0.10;0.10;;;17.30;99.90;;;;;;4955364;28;20496;-70
2023/09/13 11:53:40;;;;;;;0.10;0.10;;;17.30;99.90;;;;;;4955583;28;20463;-69
2023/09/13 11:56:07;;;;;;;0.10;0.10;;;17.20;99.90;;;;;;4955430;28;20463;-69
2023/09/13 11:58:36;;;;;;;0.10;0.10;;;17.20;99.90;;;;;;4955199;28;20466;-70
2023/09/13 12:01:05;;;;;;;0.10;0.10;;;17.20;99.90;;;;;;4953725;28;20609;-69
2023/09/13 12:03:33;;;;;;;0.10;0.10;;;17.20;99.90;;;;;;4955373;28;20467;-68
2023/09/13 12:06:00;;;;;;;0.10;0.10;;;17.20;99.90;;;;;;4955328;28;20471;-69
2023/09/13 12:08:29;;;;;;;0.10;0.10;;;17.10;99.90;;;;;;4954627;28;20483;-69
2023/09/13 12:10:58;;;;;;;0.10;0.10;;;17.00;99.90;;;;;;4954594;28;20993;-69
2023/09/13 12:13:44;;;;;;;0.10;0.10;;;17.00;99.90;;;;;;4954816;28;20951;-68
2023/09/13 12:16:11;;;;;;;0.10;0.10;;;17.00;99.90;;;;;;4954145;28;20478;-69
2023/09/13 12:18:38;;;;;;;0.10;0.10;;;17.00;99.90;;;;;;4954943;28;20471;-69
2023/09/13 12:21:06;;;;;;;0.10;0.10;;;17.10;99.90;;;;;;4954394;28;21119;-68
2023/09/13 12:23:36;;;;;;;0.10;0.10;;;17.00;99.90;;;;;;4954613;28;20902;-69
2023/09/13 12:26:07;;;;;;;0.10;0.10;;;17.00;99.90;;;;;;4954741;28;20469;-69
2023/09/13 12:28:36;;;;;;;0.20;0.20;;;17.00;99.90;;;;;;4954827;28;21004;-68
2023/09/13 12:31:06;;;;;;;0.10;0.10;;;17.00;99.90;;;;;;4953490;28;20570;-69
2023/09/13 12:33:34;;;;;;;0.10;0.10;;;17.00;99.90;;;;;;4954724;29;20472;-69
2023/09/13 12:36:01;;;;;;;0.10;0.10;;;17.00;99.90;;;;;;4954970;28;20479;-69
2023/09/13 12:38:33;;;;;;;0.10;0.10;;;17.00;99.90;;;;;;4954276;28;20477;-69
2023/09/13 12:41:00;;;;;;;0.10;0.10;;;17.00;99.90;;;;;;4954265;28;20586;-69
2023/09/13 12:43:32;;;;;;;0.10;0.10;;;16.90;99.90;;;;;;4954390;28;20465;-70
2023/09/13 12:45:59;;;;;;;0.10;0.10;;;16.90;99.90;;;;;;4950006;29;20509;-70
2023/09/13 12:48:26;;;;;;;0.10;0.10;;;16.90;99.90;;;;;;4954051;28;20466;-70
2023/09/13 12:50:54;;;;;;;0.10;0.10;;;16.80;99.90;;;;;;4953556;28;20509;-69
2023/09/13 12:53:21;;;;;;;0.10;0.10;;;16.70;99.90;;;;;;4953236;28;20907;-70
2023/09/13 12:55:48;;;;;;;0.10;0.10;;;16.70;99.90;;;;;;4949670;28;20478;-69
2023/09/13 12:58:15;;;;;;;0.10;0.10;;;16.60;99.90;;;;;;4953212;28;20476;-70
2023/09/13 13:00:51;;;;;;;0.10;0.10;;;16.50;99.90;;;;;;4953677;28;20492;-71
2023/09/13 13:03:18;;;;;;;0.10;0.10;;;16.50;99.90;;;;;;4950947;29;20495;-69
2023/09/13 13:05:45;;;;;;;0.10;0.10;;;16.40;99.90;;;;;;4953730;28;20536;-70
2023/09/13 13:08:12;;;;;;;0.40;0.40;;;16.40;99.90;;;;;;4954123;28;20470;-70
2023/09/13 13:10:56;;;;;;;0.10;0.10;;;16.40;99.90;;;;;;4953449;28;20862;-70
2023/09/13 13:13:23;;;;;;;0.10;0.10;;;16.30;99.90;;;;;;4953768;28;20460;-70
2023/09/13 13:15:51;;;;;;;0.10;0.10;;;16.30;99.90;;;;;;4953724;28;20967;-70
2023/09/13 13:18:18;;;;;;;0.10;0.10;;;16.20;99.90;;;;;;4954787;28;20473;-70
2023/09/13 13:20:46;;;;;;;0.10;0.10;;;16.20;99.90;;;;;;4953621;28;20496;-70
2023/09/13 13:23:12;;;;;;;0.10;0.10;;;16.30;99.90;;;;;;4953360;28;20494;-70
2023/09/13 13:25:41;;;;;;;0.10;0.10;;;16.30;99.90;;;;;;4953946;28;20950;-70
2023/09/13 13:28:08;;;;;;;0.10;0.10;;;16.30;99.90;;;;;;4953771;28;20469;-70
2023/09/13 13:30:34;;;;;;;0.10;0.10;;;16.20;99.90;;;;;;4952759;28;20543;-70
2023/09/13 13:33:03;;;;;;;0.10;0.10;;;16.20;99.90;;;;;;4953520;28;20492;-70
2023/09/13 13:35:30;;;;;;;0.10;0.10;;;16.20;99.90;;;;;;4953917;28;20811;-70
2023/09/13 13:37:57;;;;;;;0.10;0.10;;;16.00;99.90;;;;;;4953634;28;20469;-70
2023/09/13 13:40:23;;;;;;;0.10;0.10;;;16.00;99.90;;;;;;4953285;28;20523;-70
2023/09/13 13:42:50;;;;;;;0.10;0.10;;;15.80;99.90;;;;;;4952535;28;20955;-69
2023/09/13 13:45:17;;;;;;;0.10;0.10;;;15.70;99.90;;;;;;4953449;28;20507;-70
2023/09/13 13:47:43;;;;;;;0.10;0.10;;;15.60;99.90;;;;;;4953842;28;20491;-69
2023/09/13 13:50:12;;;;;;;0.10;0.10;;;15.60;99.90;;;;;;4953336;28;20485;-69
2023/09/13 13:52:38;;;;;;;0.10;0.10;;;15.50;99.90;;;;;;4953576;28;20492;-70
2023/09/13 13:55:06;;;;;;;0.10;0.10;;;15.50;99.90;;;;;;4953599;28;20472;-70
2023/09/13 13:57:38;;;;;;;0.10;0.10;;;15.40;99.90;;;;;;4952238;28;20473;-70
2023/09/13 14:00:06;;;;;;;0.60;0.60;;;15.40;99.90;;;;;;4953750;28;20572;-70
2023/09/13 14:02:36;;;;;;;0.10;0.10;;;15.30;99.90;;;;;;4952968;28;20494;-70
2023/09/13 14:05:04;;;;;;;0.10;0.10;;;15.30;99.90;;;;;;4952977;28;20933;-70
2023/09/13 14:07:32;;;;;;;0.10;0.10;;;15.30;99.90;;;;;;4953542;28;20461;-70
2023/09/13 14:09:59;;;;;;;0.10;0.10;;;15.20;99.90;;;;;;4953312;28;20481;-70
2023/09/13 14:12:26;;;;;;;0.10;0.10;;;15.10;99.90;;;;;;4953190;28;20499;-70
2023/09/13 14:14:53;;;;;;;0.10;0.10;;;15.20;99.90;;;;;;4953608;28;20465;-69
2023/09/13 14:17:20;;;;;;;0.10;0.10;;;15.10;99.90;;;;;;4952794;28;20504;-70
2023/09/13 14:19:47;;;;;;;0.57;0.57;;;15.10;99.90;;;;;;4952970;28;20492;-70
2023/09/13 14:22:13;;;;;;;0.10;0.10;;;15.10;99.90;;;;;;4954107;29;21140;-71
2023/09/13 14:24:41;;;;;;;0.20;0.20;;;15.10;99.90;;;;;;4953388;28;20473;-70
2023/09/13 14:27:08;;;;;;;0.10;0.10;;;15.10;99.90;;;;;;4953602;28;20471;-70
2023/09/13 14:29:35;;;;;;;0.10;0.10;;;15.00;99.90;;;;;;4945559;29;20481;-70
2023/09/13 14:32:03;;;;;;;0.10;0.10;;;15.00;99.90;;;;;;4953646;28;20496;-70
2023/09/13 14:34:34;;;;;;;0.10;0.10;;;14.80;99.90;;;;;;4952231;28;20480;-70
2023/09/13 14:37:01;;;;;;;0.10;0.10;;;14.80;99.90;;;;;;4953238;29;20472;-70
2023/09/13 14:39:28;;;;;;;0.10;0.10;;;14.70;99.90;;;;;;4952978;28;20472;-70
2023/09/13 14:41:56;;;;;;;0.10;0.10;;;14.70;99.90;;;;;;4953193;28;20951;-70
2023/09/13 14:44:22;;;;;;;0.10;0.10;;;14.60;99.90;;;;;;4953247;28;20476;-70
2023/09/13 14:46:49;;;;;;;0.10;0.10;;;14.60;99.90;;;;;;4952737;28;20461;-70
2023/09/13 14:49:19;;;;;;;0.10;0.10;;;14.60;99.90;;;;;;4953326;29;20794;-71
2023/09/13 14:51:46;;;;;;;0.10;0.10;;;14.60;99.90;;;;;;4953014;28;21006;-71
2023/09/13 14:54:13;;;;;;;0.10;0.10;;;14.50;99.90;;;;;;4955097;28;20468;-71
2023/09/13 14:56:40;;;;;;;0.33;0.33;;;14.60;99.90;;;;;;4956653;28;20895;-71
2023/09/13 14:59:08;;;;;;;0.10;0.10;;;14.60;99.90;;;;;;4956232;28;20468;-72
2023/09/13 15:01:34;;;;;;;0.10;0.10;;;14.60;99.90;;;;;;4955725;29;20834;-70
2023/09/13 15:04:02;;;;;;;0.10;0.10;;;14.50;99.90;;;;;;4956368;29;20471;-70
2023/09/13 15:06:29;;;;;;;0.10;0.10;;;14.50;99.90;;;;;;4956017;28;20974;-69
2023/09/13 15:08:57;;;;;;;0.10;0.10;;;14.50;99.90;;;;;;4956389;28;20523;-69
2023/09/13 15:11:24;;;;;;;0.10;0.10;;;14.40;99.90;;;;;;4956023;28;20480;-71
2023/09/13 15:13:51;;;;;;;0.10;0.10;;;14.30;99.90;;;;;;4955505;28;20531;-70
2023/09/13 15:16:19;;;;;;;0.10;0.10;;;14.30;99.90;;;;;;4955924;29;20804;-70
2023/09/13 15:18:46;;;;;;;0.10;0.10;;;14.40;99.90;;;;;;4955799;28;20468;-70
2023/09/13 15:21:12;;;;;;;0.10;0.10;;;14.40;99.90;;;;;;4955368;28;20500;-70
2023/09/13 15:23:39;;;;;;;0.10;0.10;;;14.60;99.90;;;;;;4956003;28;20894;-71
2023/09/13 15:26:06;;;;;;;0.10;0.10;;;14.60;99.90;;;;;;4955375;28;20869;-71
2023/09/13 15:28:33;;;;;;;0.10;0.10;;;14.60;99.90;;;;;;4955593;28;20461;-70
2023/09/13 15:30:59;;;;;;;0.10;0.10;;;14.70;99.90;;;;;;4955760;29;20492;-71
2023/09/13 15:33:27;;;;;;;0.10;0.10;;;14.70;99.90;;;;;;4955645;28;20496;-72
2023/09/13 15:35:54;;;;;;;0.10;0.10;;;14.80;99.90;;;;;;4955882;28;20465;-70
2023/09/13 15:38:21;;;;;;;0.10;0.10;;;14.80;99.90;;;;;;4955731;28;20477;-71
2023/09/13 15:40:47;;;;;;;0.10;0.10;;;14.90;99.90;;;;;;4953890;28;20488;-70
2023/09/13 15:43:15;;;;;;;0.10;0.10;;;14.90;99.90;;;;;;4955474;29;20457;-71
2023/09/13 15:45:42;;;;;;;0.10;0.10;;;15.00;99.90;;;;;;4955348;28;20951;-70
2023/09/13 15:48:08;;;;;;;0.10;0.10;;;15.00;99.90;;;;;;4955270;28;20464;-70
2023/09/13 15:50:36;;;;;;;0.10;0.10;;;15.00;99.90;;;;;;4955202;28;21026;-70
2023/09/13 15:53:03;;;;;;;0.10;0.10;;;15.10;99.90;;;;;;4954399;28;21078;-71
2023/09/13 15:55:31;;;;;;;0.10;0.10;;;15.10;99.90;;;;;;4954933;28;20488;-70
2023/09/13 15:57:58;;;;;;;0.10;0.10;;;15.10;99.90;;;;;;4955343;29;20472;-70
2023/09/13 16:00:25;;;;;;;0.10;0.10;;;15.20;99.90;;;;;;4955197;28;20500;-71
2023/09/13 16:02:51;;;;;;;0.10;0.10;;;15.40;99.90;;;;;;4955406;28;20467;-70
2023/09/13 16:05:18;;;;;;;0.10;0.10;;;15.40;99.90;;;;;;4954463;28;20465;-70
2023/09/13 16:07:46;;;;;;;0.10;0.10;;;15.60;99.90;;;;;;4952880;28;20494;-70
2023/09/13 16:10:13;;;;;;;0.10;0.10;;;15.60;99.90;;;;;;4954702;28;20494;-70
2023/09/13 16:12:40;;;;;;;0.10;0.10;;;15.70;99.90;;;;;;4954975;28;21007;-70
2023/09/13 16:15:08;;;;;;;0.10;0.10;;;15.80;99.90;;;;;;4954872;28;20466;-70
2023/09/13 16:17:34;;;;;;;0.10;0.10;;;15.80;99.90;;;;;;4954779;28;20472;-70
2023/09/13 16:20:02;;;;;;;0.10;0.10;;;15.80;99.90;;;;;;4953705;28;21027;-70
2023/09/13 16:22:30;;;;;;;0.10;0.10;;;15.80;99.90;;;;;;4954779;28;20541;-69
2023/09/13 16:24:59;;;;;;;0.10;0.10;;;15.80;99.90;;;;;;4954770;29;20472;-70
2023/09/13 16:27:26;;;;;;;0.10;0.10;;;15.70;99.90;;;;;;4954727;28;20560;-70
2023/09/13 16:29:52;;;;;;;0.10;0.10;;;15.70;99.90;;;;;;4954274;28;20493;-69
2023/09/13 16:32:19;;;;;;;0.10;0.10;;;15.70;99.90;;;;;;4955006;28;20496;-70
2023/09/13 16:34:46;;;;;;;0.10;0.10;;;15.60;99.90;;;;;;4955294;28;20483;-69
2023/09/13 16:37:12;;;;;;;0.10;0.10;;;15.60;99.90;;;;;;4942265;28;20895;-70
2023/09/13 16:39:40;;;;;;;0.10;0.10;;;15.50;99.90;;;;;;4947548;28;20481;-69
2023/09/13 16:42:08;;;;;;;0.10;0.10;;;15.50;99.90;;;;;;4948616;28;20570;-70
2023/09/13 16:44:35;;;;;;;0.10;0.10;;;15.50;99.90;;;;;;4944512;29;20461;-70
2023/09/13 16:47:02;;;;;;;0.10;0.10;;;15.50;99.90;;;;;;4944460;29;20462;-70
2023/09/13 16:49:29;;;;;;;0.10;0.10;;;15.40;99.90;;;;;;4952231;29;20529;-71
2023/09/13 16:51:57;;;;;;;0.10;0.10;;;15.40;99.90;;;;;;4943851;29;20468;-70